Time;durP1;ratioP1;P1;durP2;ratioP2;P2;SDS_P1;SDS_P2;PMS_P1;PMS_P2;Temp;Humidity;BMP_temperature;BMP_pressure;BME280_temperature;BME280_humidity;BME280_pressure;Samples;Min_cycle;Max_cycle;Signal;HPM_P1;HPM_P2
2023/09/08 00:01:40;;;;;;;4.40;3.33;;;26.60;90.30;;;;;;5012334;28;20433;-87
2023/09/08 00:04:08;;;;;;;3.70;3.30;;;26.60;90.30;;;;;;5011461;28;20197;-87
2023/09/08 00:06:37;;;;;;;3.67;3.20;;;26.60;90.30;;;;;;5011740;28;20176;-87
2023/09/08 00:09:03;;;;;;;4.00;3.20;;;26.50;90.30;;;;;;5010613;28;20169;-87
2023/09/08 00:11:29;;;;;;;3.50;2.93;;;26.50;90.30;;;;;;5009901;28;20232;-86
2023/09/08 00:13:54;;;;;;;3.77;3.37;;;26.50;90.30;;;;;;5011260;28;20162;-87
2023/09/08 00:16:20;;;;;;;3.60;3.30;;;26.50;90.40;;;;;;5014475;28;20187;-87
2023/09/08 00:18:52;;;;;;;3.53;3.23;;;26.50;90.40;;;;;;5014722;28;20170;-88
2023/09/08 00:21:24;;;;;;;4.50;3.30;;;26.50;90.40;;;;;;4984261;28;20170;-88
2023/09/08 00:23:51;;;;;;;3.73;3.17;;;26.40;90.40;;;;;;5011651;28;20208;-88
2023/09/08 00:26:16;;;;;;;3.57;3.27;;;26.40;90.40;;;;;;5012449;28;20176;-87
2023/09/08 00:28:42;;;;;;;3.50;3.20;;;26.40;90.40;;;;;;5010007;28;20174;-87
2023/09/08 00:31:09;;;;;;;3.83;3.50;;;26.40;90.40;;;;;;5013037;28;20216;-87
2023/09/08 00:33:37;;;;;;;3.90;3.60;;;26.40;90.40;;;;;;5013918;28;20169;-88
2023/09/08 00:36:06;;;;;;;4.73;3.40;;;26.40;90.40;;;;;;5012292;28;20417;-87
2023/09/08 00:38:35;;;;;;;3.77;3.43;;;26.40;90.40;;;;;;5012214;28;20317;-87
2023/09/08 00:41:07;;;;;;;3.67;3.37;;;26.40;90.50;;;;;;5012995;28;20178;-87
2023/09/08 00:43:36;;;;;;;3.80;3.50;;;26.40;90.50;;;;;;5013628;28;20324;-87
2023/09/08 00:46:06;;;;;;;3.90;3.60;;;26.30;90.40;;;;;;5014935;28;20455;-87
2023/09/08 00:48:38;;;;;;;3.63;3.33;;;26.30;90.50;;;;;;5013661;28;20180;-87
2023/09/08 00:51:09;;;;;;;3.63;3.33;;;26.30;90.50;;;;;;5013022;28;20368;-86
2023/09/08 00:53:38;;;;;;;3.87;3.47;;;26.30;90.50;;;;;;5012311;28;20185;-87
2023/09/08 00:56:10;;;;;;;3.67;3.37;;;26.20;90.40;;;;;;5014726;28;20174;-87
2023/09/08 00:58:36;;;;;;;3.87;3.47;;;26.30;90.50;;;;;;5015574;28;20292;-87
2023/09/08 01:01:02;;;;;;;3.80;3.40;;;26.20;90.40;;;;;;5015415;28;20170;-88
2023/09/08 01:03:28;;;;;;;4.07;3.67;;;26.20;90.50;;;;;;5014071;28;20267;-88
2023/09/08 01:05:55;;;;;;;3.77;3.30;;;26.20;90.50;;;;;;5015394;28;20178;-88
2023/09/08 01:08:21;;;;;;;3.83;3.53;;;26.20;90.60;;;;;;5016264;28;20166;-87
2023/09/08 01:10:49;;;;;;;4.90;3.27;;;26.20;90.60;;;;;;5014353;28;20243;-88
2023/09/08 01:13:19;;;;;;;4.43;3.80;;;26.20;90.60;;;;;;5014808;28;20272;-85
2023/09/08 01:15:48;;;;;;;4.13;3.73;;;26.20;90.50;;;;;;5013081;28;20287;-87
2023/09/08 01:18:13;;;;;;;3.73;3.43;;;26.20;90.50;;;;;;5014715;28;20162;-87
2023/09/08 01:21:14;;;;;;;4.17;3.77;;;26.10;90.50;;;;;;5014691;28;20177;-87
2023/09/08 01:24:01;;;;;;;3.63;3.33;;;26.10;90.50;;;;;;5003369;28;20233;-88
2023/09/08 01:26:32;;;;;;;3.50;3.20;;;26.10;90.50;;;;;;5012200;28;20567;-88
2023/09/08 01:28:59;;;;;;;3.30;3.00;;;26.10;90.50;;;;;;5014898;28;20240;-88
2023/09/08 01:31:28;;;;;;;3.50;3.20;;;26.10;90.50;;;;;;5014241;28;20158;-88
2023/09/08 01:34:04;;;;;;;3.50;3.20;;;26.10;90.60;;;;;;5012965;28;20264;-88
2023/09/08 01:36:30;;;;;;;4.00;3.60;;;26.10;90.50;;;;;;5013684;28;20296;-88
2023/09/08 01:39:02;;;;;;;3.47;3.17;;;26.10;90.60;;;;;;5014270;28;20273;-88
2023/09/08 01:41:37;;;;;;;4.80;3.63;;;26.10;90.60;;;;;;5012984;28;20184;-88
2023/09/08 01:44:07;;;;;;;3.50;3.20;;;26.00;90.60;;;;;;5013393;28;20213;-88
2023/09/08 01:46:36;;;;;;;3.67;3.30;;;26.00;90.60;;;;;;5013441;28;20394;-88
2023/09/08 01:49:05;;;;;;;4.87;3.60;;;26.00;90.70;;;;;;5015172;28;20184;-88
2023/09/08 01:51:34;;;;;;;3.80;3.50;;;26.00;90.70;;;;;;5014636;28;20173;-87
2023/09/08 01:54:00;;;;;;;3.90;3.50;;;26.00;90.60;;;;;;5014227;28;20306;-88
2023/09/08 01:56:26;;;;;;;3.50;3.20;;;25.90;90.70;;;;;;5014406;28;20225;-88
2023/09/08 01:58:55;;;;;;;3.90;3.43;;;25.90;90.70;;;;;;5013367;28;20421;-88
2023/09/08 02:01:20;;;;;;;4.20;3.77;;;25.90;90.70;;;;;;5014216;28;20280;-88
2023/09/08 02:03:49;;;;;;;4.17;3.30;;;25.90;90.60;;;;;;5013810;28;20476;-88
2023/09/08 02:06:14;;;;;;;4.00;3.70;;;25.90;90.70;;;;;;5014243;28;20177;-88
2023/09/08 02:08:40;;;;;;;4.23;3.37;;;25.90;90.80;;;;;;5014063;28;20170;-88
2023/09/08 02:11:08;;;;;;;4.27;3.87;;;25.90;90.70;;;;;;5014303;28;20169;-88
2023/09/08 02:13:37;;;;;;;4.27;3.40;;;25.90;90.70;;;;;;5015032;28;20182;-88
2023/09/08 02:16:04;;;;;;;3.63;3.33;;;25.90;90.70;;;;;;5015091;28;20174;-88
2023/09/08 02:18:39;;;;;;;5.47;3.63;;;25.80;90.70;;;;;;5013479;28;20182;-88
2023/09/08 02:21:07;;;;;;;3.77;3.47;;;25.80;90.70;;;;;;5014660;28;20204;-88
2023/09/08 02:23:33;;;;;;;4.20;3.40;;;25.80;90.70;;;;;;5014418;28;20209;-87
2023/09/08 02:26:02;;;;;;;4.10;3.37;;;25.80;90.70;;;;;;5013552;28;20462;-88
2023/09/08 02:28:30;;;;;;;3.33;3.03;;;25.80;90.70;;;;;;5012423;28;20196;-88
2023/09/08 02:30:56;;;;;;;4.07;3.20;;;25.80;90.80;;;;;;5004710;28;20169;-88
2023/09/08 02:33:25;;;;;;;3.77;3.47;;;25.70;90.70;;;;;;5014314;28;20165;-88
2023/09/08 02:35:54;;;;;;;3.53;3.23;;;25.70;90.70;;;;;;5014482;28;20264;-88
2023/09/08 02:38:19;;;;;;;3.67;3.37;;;25.70;90.70;;;;;;5013884;28;20228;-88
2023/09/08 02:40:56;;;;;;;5.37;3.77;;;25.70;90.70;;;;;;5014631;28;20205;-88
2023/09/08 02:43:22;;;;;;;3.80;3.50;;;25.70;90.70;;;;;;5013194;28;20169;-88
2023/09/08 02:45:48;;;;;;;4.20;3.80;;;25.70;90.70;;;;;;5012538;28;20260;-88
2023/09/08 02:48:16;;;;;;;4.00;3.60;;;25.70;90.70;;;;;;5014112;28;20205;-88
2023/09/08 02:50:45;;;;;;;3.60;3.30;;;25.70;90.70;;;;;;5012180;28;20235;-88
2023/09/08 02:53:14;;;;;;;4.40;4.00;;;25.70;90.70;;;;;;5013333;28;20184;-88
2023/09/08 02:55:39;;;;;;;5.30;4.10;;;25.70;90.70;;;;;;5013200;28;20258;-88
2023/09/08 02:58:05;;;;;;;3.67;3.37;;;25.60;90.70;;;;;;5012656;28;20538;-87
2023/09/08 03:00:35;;;;;;;4.63;3.63;;;25.60;90.70;;;;;;5012220;28;20459;-88
2023/09/08 03:03:06;;;;;;;4.37;3.53;;;25.60;90.70;;;;;;5013777;28;20601;-88
2023/09/08 03:05:32;;;;;;;3.83;3.43;;;25.60;90.70;;;;;;5011869;28;20212;-88
2023/09/08 03:08:00;;;;;;;4.57;3.77;;;25.60;90.80;;;;;;5013375;28;20189;-88
2023/09/08 03:10:29;;;;;;;4.20;3.80;;;25.60;90.80;;;;;;5013047;28;20176;-87
2023/09/08 03:12:55;;;;;;;4.30;3.50;;;25.60;90.70;;;;;;5013209;28;20173;-88
2023/09/08 03:15:33;;;;;;;3.77;3.43;;;25.50;90.70;;;;;;5012691;28;20174;-88
2023/09/08 03:18:02;;;;;;;4.23;3.83;;;25.60;90.70;;;;;;5011352;28;20181;-88
2023/09/08 03:20:31;;;;;;;5.30;3.50;;;25.50;90.70;;;;;;5011797;28;20174;-88
2023/09/08 03:23:07;;;;;;;4.93;3.70;;;25.50;90.70;;;;;;5011561;28;20248;-88
2023/09/08 03:25:36;;;;;;;3.93;3.53;;;25.50;90.80;;;;;;5011683;28;20643;-88
2023/09/08 03:28:02;;;;;;;3.70;3.40;;;25.50;90.70;;;;;;5011980;28;20268;-88
2023/09/08 03:30:31;;;;;;;4.63;3.63;;;25.50;90.70;;;;;;5010798;28;20540;-88
2023/09/08 03:32:59;;;;;;;4.03;3.63;;;25.50;90.70;;;;;;5011177;28;20174;-88
2023/09/08 03:35:28;;;;;;;4.10;3.80;;;25.40;90.70;;;;;;5011609;28;20185;-88
2023/09/08 03:38:03;;;;;;;3.70;3.40;;;25.40;90.70;;;;;;5011640;28;20189;-88
2023/09/08 03:40:28;;;;;;;4.60;3.60;;;25.40;90.70;;;;;;5012330;28;20288;-88
2023/09/08 03:42:57;;;;;;;3.80;3.50;;;25.40;90.70;;;;;;5012729;28;20276;-88
2023/09/08 03:45:25;;;;;;;4.50;3.40;;;25.40;90.70;;;;;;5010355;28;20220;-88
2023/09/08 03:47:54;;;;;;;3.80;3.50;;;25.40;90.70;;;;;;5011452;28;20261;-88
2023/09/08 03:50:24;;;;;;;3.70;3.40;;;25.40;90.80;;;;;;5010789;28;20554;-88
2023/09/08 03:52:59;;;;;;;4.00;3.57;;;25.30;90.70;;;;;;5010086;28;20185;-88
2023/09/08 03:55:27;;;;;;;3.63;3.30;;;25.40;90.70;;;;;;5011030;28;20177;-88
2023/09/08 03:57:57;;;;;;;3.93;3.53;;;25.30;90.70;;;;;;5011310;28;20177;-88
2023/09/08 04:00:22;;;;;;;4.37;3.73;;;25.30;90.70;;;;;;5012132;28;20479;-88
2023/09/08 04:02:54;;;;;;;4.30;3.90;;;25.30;90.70;;;;;;5011444;28;20170;-88
2023/09/08 04:05:23;;;;;;;4.27;3.87;;;25.30;90.70;;;;;;5010506;28;20205;-88
2023/09/08 04:07:51;;;;;;;3.90;3.60;;;25.30;90.60;;;;;;5012653;28;20173;-88
2023/09/08 04:10:17;;;;;;;3.87;3.53;;;25.30;90.70;;;;;;5011541;28;20440;-88
2023/09/08 04:12:44;;;;;;;4.27;3.87;;;25.20;90.70;;;;;;5011082;28;20170;-88
2023/09/08 04:15:10;;;;;;;3.70;3.30;;;25.20;90.70;;;;;;5011231;28;20351;-88
2023/09/08 04:17:39;;;;;;;3.80;3.47;;;25.30;90.70;;;;;;5009746;28;20276;-88
2023/09/08 04:20:08;;;;;;;4.10;3.70;;;25.20;90.70;;;;;;5007365;28;20292;-89
2023/09/08 04:22:57;;;;;;;4.10;3.70;;;25.20;90.60;;;;;;5007156;28;20232;-88
2023/09/08 04:25:26;;;;;;;4.60;3.60;;;25.20;90.60;;;;;;5004278;28;20214;-89
2023/09/08 04:27:54;;;;;;;3.97;3.60;;;25.20;90.60;;;;;;5008190;28;20192;-89
2023/09/08 04:30:23;;;;;;;4.00;3.60;;;25.20;90.50;;;;;;5008962;28;20470;-88
2023/09/08 04:32:55;;;;;;;3.57;3.27;;;25.10;90.50;;;;;;5008524;28;20185;-88
2023/09/08 04:35:24;;;;;;;4.00;3.60;;;25.20;90.50;;;;;;5007021;28;20414;-89
2023/09/08 04:37:53;;;;;;;4.13;3.63;;;25.20;90.50;;;;;;5006788;28;20194;-88
2023/09/08 04:40:23;;;;;;;4.27;3.77;;;25.20;90.50;;;;;;5007212;28;20204;-88
2023/09/08 04:42:49;;;;;;;3.73;3.40;;;25.10;90.50;;;;;;5006281;28;20312;-88
2023/09/08 04:45:14;;;;;;;4.53;4.13;;;25.10;90.40;;;;;;5005755;28;20517;-88
2023/09/08 04:47:40;;;;;;;4.97;3.63;;;25.10;90.30;;;;;;5006172;28;20180;-88
2023/09/08 04:50:09;;;;;;;4.00;3.60;;;25.10;90.30;;;;;;5005990;28;20166;-88
2023/09/08 04:52:38;;;;;;;4.27;3.87;;;25.10;90.30;;;;;;5006555;28;20170;-89
2023/09/08 04:55:09;;;;;;;4.67;3.57;;;25.10;90.30;;;;;;5005973;28;20185;-88
2023/09/08 04:57:38;;;;;;;4.63;3.67;;;25.10;90.30;;;;;;5004354;28;20176;-89
2023/09/08 05:00:42;;;;;;;3.57;3.27;;;25.10;90.20;;;;;;5002838;28;20247;-89
2023/09/08 05:03:14;;;;;;;4.63;3.40;;;25.10;90.20;;;;;;5009001;28;20165;-90
2023/09/08 05:05:39;;;;;;;4.07;3.67;;;25.10;90.10;;;;;;5011141;28;20209;-90
2023/09/08 05:08:08;;;;;;;4.20;3.80;;;25.10;90.10;;;;;;5011145;28;20196;-90
2023/09/08 05:10:34;;;;;;;3.83;3.33;;;25.10;90.10;;;;;;5009603;28;20174;-90
2023/09/08 05:13:03;;;;;;;3.97;3.67;;;25.10;90.00;;;;;;5008857;28;20174;-90
2023/09/08 05:15:30;;;;;;;4.33;4.00;;;25.10;89.90;;;;;;5009816;28;20181;-90
2023/09/08 05:18:00;;;;;;;3.80;3.40;;;25.10;89.80;;;;;;5014669;28;20281;-90
2023/09/08 05:20:26;;;;;;;4.07;3.67;;;25.10;89.60;;;;;;5014469;28;20292;-90
2023/09/08 05:22:54;;;;;;;3.83;3.50;;;25.10;89.40;;;;;;5007914;28;20265;-90
2023/09/08 05:25:24;;;;;;;6.97;4.10;;;25.10;89.20;;;;;;5007911;28;20213;-90
2023/09/08 05:27:50;;;;;;;5.23;3.73;;;25.10;89.00;;;;;;5006314;28;20470;-90
2023/09/08 05:30:19;;;;;;;4.50;3.87;;;25.10;89.00;;;;;;5005742;28;20578;-90
2023/09/08 05:32:47;;;;;;;5.03;3.63;;;25.10;88.80;;;;;;5008895;28;20224;-90
2023/09/08 05:35:16;;;;;;;5.33;3.83;;;25.10;88.80;;;;;;5006987;28;20567;-90
2023/09/08 05:37:41;;;;;;;4.30;3.90;;;25.10;88.50;;;;;;5005972;28;20190;-90
2023/09/08 05:40:08;;;;;;;5.07;4.13;;;25.10;88.40;;;;;;5005088;28;20178;-91
2023/09/08 05:42:36;;;;;;;4.37;3.90;;;25.10;88.20;;;;;;5006942;28;20195;-90
2023/09/08 05:45:07;;;;;;;4.20;3.80;;;25.10;88.00;;;;;;5003084;28;20217;-90
2023/09/08 05:47:39;;;;;;;4.60;4.03;;;25.10;87.90;;;;;;5006961;28;20194;-90
2023/09/08 05:50:08;;;;;;;5.23;4.00;;;25.10;88.10;;;;;;5005690;28;20187;-90
2023/09/08 05:55:37;;;;;;;3.70;3.40;;;25.00;88.20;;;;;;5001189;28;20181;-90
2023/09/08 05:58:07;;;;;;;4.07;3.67;;;25.00;88.20;;;;;;5007424;28;20177;-90
2023/09/08 06:00:33;;;;;;;5.00;3.87;;;24.90;88.20;;;;;;5006468;28;20216;-90
2023/09/08 06:03:16;;;;;;;5.60;4.20;;;25.00;88.30;;;;;;5004906;28;20201;-90
2023/09/08 06:06:02;;;;;;;4.00;3.60;;;25.00;88.10;;;;;;5004934;28;20296;-90
2023/09/08 06:08:31;;;;;;;4.20;3.80;;;25.00;87.80;;;;;;4998620;28;20177;-90
2023/09/08 06:10:57;;;;;;;4.20;3.80;;;25.00;87.50;;;;;;5005474;28;20169;-90
2023/09/08 06:13:22;;;;;;;6.27;3.83;;;25.00;87.30;;;;;;5002565;28;20181;-90
2023/09/08 06:15:48;;;;;;;5.30;3.90;;;25.10;87.10;;;;;;5003835;28;20248;-90
2023/09/08 06:18:16;;;;;;;4.73;4.17;;;25.10;86.90;;;;;;5002835;28;20432;-90
2023/09/08 06:20:52;;;;;;;4.23;3.90;;;25.10;86.60;;;;;;5004771;28;20376;-90
2023/09/08 06:23:21;;;;;;;4.30;3.80;;;25.10;86.40;;;;;;5005769;28;20388;-90
2023/09/08 06:25:46;;;;;;;6.20;4.10;;;25.10;86.30;;;;;;5003969;28;20231;-90
2023/09/08 06:28:12;;;;;;;4.93;4.37;;;25.20;86.10;;;;;;5004953;28;20170;-90
2023/09/08 06:30:41;;;;;;;4.67;3.73;;;25.10;85.90;;;;;;5004485;28;20199;-90
2023/09/08 06:33:11;;;;;;;4.07;3.67;;;25.20;85.90;;;;;;5004807;28;20178;-90
2023/09/08 06:35:37;;;;;;;4.33;3.93;;;25.20;85.70;;;;;;4999058;28;20370;-90
2023/09/08 06:38:03;;;;;;;4.67;3.87;;;25.20;85.40;;;;;;5004006;28;20355;-90
2023/09/08 06:40:31;;;;;;;5.07;4.20;;;25.30;85.30;;;;;;5003111;28;20170;-90
2023/09/08 06:42:58;;;;;;;4.93;4.27;;;25.40;85.70;;;;;;5002895;28;20210;-91
2023/09/08 06:45:27;;;;;;;4.40;4.00;;;25.40;84.90;;;;;;5001142;28;20231;-90
2023/09/08 06:47:55;;;;;;;4.97;4.10;;;25.40;84.50;;;;;;5003698;28;20178;-90
2023/09/08 06:50:24;;;;;;;4.80;4.30;;;25.50;84.30;;;;;;5004820;28;20169;-90
2023/09/08 06:52:54;;;;;;;5.63;4.27;;;25.50;84.10;;;;;;5003901;28;20218;-90
2023/09/08 06:55:22;;;;;;;4.20;3.80;;;25.60;83.90;;;;;;5007043;28;20170;-90
2023/09/08 06:57:51;;;;;;;4.27;3.87;;;25.70;83.50;;;;;;5005635;28;20544;-90
2023/09/08 07:00:20;;;;;;;5.47;4.07;;;25.80;83.10;;;;;;5006116;28;20178;-90
2023/09/08 07:02:49;;;;;;;4.33;3.93;;;25.90;82.80;;;;;;5005546;28;20177;-90
2023/09/08 07:05:18;;;;;;;4.30;3.90;;;25.90;82.20;;;;;;5004625;28;20223;-90
2023/09/08 07:07:46;;;;;;;4.40;4.00;;;26.00;81.80;;;;;;5004385;28;20236;-90
2023/09/08 07:10:18;;;;;;;4.37;3.93;;;26.10;81.20;;;;;;5002812;28;20565;-90
2023/09/08 07:12:48;;;;;;;4.70;4.13;;;26.20;80.60;;;;;;5004728;28;20197;-91
2023/09/08 07:15:16;;;;;;;4.85;4.35;;;26.30;79.90;;;;;;5003134;28;20173;-90
2023/09/08 07:17:45;;;;;;;4.28;3.88;;;26.40;79.10;;;;;;5002156;28;20212;-90
2023/09/08 07:20:13;;;;;;;6.25;3.90;;;26.50;78.40;;;;;;5003208;28;20178;-90
2023/09/08 07:22:39;;;;;;;4.25;3.85;;;26.60;77.80;;;;;;5005186;28;20396;-91
2023/09/08 07:25:06;;;;;;;4.22;3.80;;;26.70;77.20;;;;;;5002880;28;20527;-90
2023/09/08 07:27:31;;;;;;;5.18;3.78;;;26.80;76.40;;;;;;5005099;28;20277;-90
2023/09/08 07:30:00;;;;;;;4.13;3.70;;;27.10;75.60;;;;;;5006116;28;20393;-90
2023/09/08 07:32:32;;;;;;;4.88;3.90;;;27.20;74.20;;;;;;5002887;28;20184;-90
2023/09/08 07:35:13;;;;;;;4.55;4.13;;;27.40;73.40;;;;;;5002781;28;20411;-90
2023/09/08 07:37:40;;;;;;;4.57;4.18;;;27.50;72.70;;;;;;5003359;28;20217;-90
2023/09/08 07:40:15;;;;;;;4.13;3.72;;;27.70;71.80;;;;;;5002625;28;20205;-90
2023/09/08 07:42:41;;;;;;;4.70;4.20;;;27.90;70.80;;;;;;5003127;28;20358;-90
2023/09/08 07:45:09;;;;;;;4.15;3.83;;;28.20;70.10;;;;;;5003062;28;20208;-90
2023/09/08 07:47:35;;;;;;;4.85;3.85;;;28.30;69.20;;;;;;5001851;28;20197;-92
2023/09/08 07:50:23;;;;;;;4.35;3.80;;;28.50;68.40;;;;;;5001540;28;20247;-90
2023/09/08 07:52:53;;;;;;;4.15;3.75;;;28.70;67.50;;;;;;5001221;28;20438;-91
2023/09/08 07:55:19;;;;;;;4.30;3.90;;;28.90;66.70;;;;;;5002869;28;20201;-91
2023/09/08 07:57:46;;;;;;;4.97;4.00;;;29.00;66.10;;;;;;5003275;28;20343;-91
2023/09/08 08:00:18;;;;;;;4.13;3.75;;;29.20;65.50;;;;;;5003931;28;20517;-90
2023/09/08 08:02:55;;;;;;;4.40;3.72;;;29.30;64.60;;;;;;5003805;28;20384;-90
2023/09/08 08:05:21;;;;;;;4.70;4.20;;;29.50;64.20;;;;;;5001541;28;20215;-91
2023/09/08 08:07:50;;;;;;;4.57;3.90;;;29.60;63.60;;;;;;5000928;28;20178;-90
2023/09/08 08:10:19;;;;;;;5.53;3.92;;;29.70;63.00;;;;;;5000274;28;20208;-91
2023/09/08 08:12:47;;;;;;;4.00;3.70;;;29.90;62.30;;;;;;5007690;28;20181;-90
2023/09/08 08:15:18;;;;;;;4.35;3.80;;;30.10;61.30;;;;;;4998934;28;20517;-90
2023/09/08 08:17:47;;;;;;;3.97;3.60;;;30.30;60.30;;;;;;4999616;28;20425;-91
2023/09/08 08:20:16;;;;;;;4.25;3.67;;;30.50;59.70;;;;;;4999407;28;20497;-91
2023/09/08 08:22:46;;;;;;;4.10;3.70;;;30.60;59.30;;;;;;5001069;28;20331;-90
2023/09/08 08:25:17;;;;;;;5.32;3.88;;;30.70;59.00;;;;;;4999645;28;20677;-91
2023/09/08 08:27:46;;;;;;;4.38;3.97;;;30.90;58.70;;;;;;4998870;28;20328;-91
2023/09/08 08:30:14;;;;;;;4.70;4.00;;;30.90;58.50;;;;;;5001193;28;20315;-90
2023/09/08 08:32:43;;;;;;;4.15;3.85;;;31.10;58.30;;;;;;5003562;28;20208;-91
2023/09/08 08:35:11;;;;;;;4.35;3.95;;;31.10;58.10;;;;;;5004409;28;20418;-91
2023/09/08 08:37:40;;;;;;;4.10;3.80;;;31.20;57.80;;;;;;5007513;28;20227;-91
2023/09/08 08:40:15;;;;;;;4.38;3.80;;;31.30;57.80;;;;;;5007711;28;20192;-90
2023/09/08 08:42:42;;;;;;;4.28;3.90;;;31.30;57.70;;;;;;5005502;28;20180;-91
2023/09/08 08:45:21;;;;;;;4.18;3.80;;;31.30;57.60;;;;;;5002834;28;20267;-91
2023/09/08 08:47:52;;;;;;;4.05;3.60;;;31.30;57.60;;;;;;5007398;28;20239;-91
2023/09/08 08:50:21;;;;;;;4.20;3.78;;;31.40;57.50;;;;;;5006973;28;20192;-91
2023/09/08 08:52:53;;;;;;;4.13;3.83;;;31.50;57.40;;;;;;5007449;28;20292;-91
2023/09/08 08:55:19;;;;;;;4.07;3.78;;;31.60;57.40;;;;;;5007653;28;20177;-91
2023/09/08 08:57:49;;;;;;;3.83;3.53;;;31.70;57.20;;;;;;5005960;28;20173;-91
2023/09/08 09:00:18;;;;;;;4.25;3.85;;;31.60;57.00;;;;;;5007322;28;20641;-90
2023/09/08 09:02:48;;;;;;;4.20;3.80;;;31.70;57.00;;;;;;5005044;28;20220;-90
2023/09/08 09:05:15;;;;;;;4.07;3.70;;;31.60;56.80;;;;;;5005604;28;20217;-91
2023/09/08 09:07:44;;;;;;;4.35;3.95;;;31.80;56.80;;;;;;5005287;28;20358;-91
2023/09/08 09:10:13;;;;;;;4.05;3.65;;;31.90;56.60;;;;;;5006113;28;20174;-91
2023/09/08 09:12:39;;;;;;;3.97;3.67;;;31.90;56.50;;;;;;5004716;28;20365;-91
2023/09/08 09:15:08;;;;;;;4.20;3.85;;;32.00;56.40;;;;;;5005596;28;20217;-91
2023/09/08 09:17:34;;;;;;;3.50;3.30;;;32.20;56.40;;;;;;5006876;28;20388;-90
2023/09/08 09:20:23;;;;;;;4.00;3.70;;;32.20;56.50;;;;;;5005604;28;20491;-91
2023/09/08 09:22:49;;;;;;;4.05;3.65;;;32.30;56.20;;;;;;5004123;28;20174;-91
2023/09/08 09:25:30;;;;;;;3.95;3.60;;;32.30;56.20;;;;;;5002169;28;20205;-91
2023/09/08 09:28:00;;;;;;;3.80;3.50;;;32.40;56.20;;;;;;5004142;28;20256;-91
2023/09/08 09:30:47;;;;;;;3.92;3.60;;;32.40;56.60;;;;;;5001137;28;20231;-90
2023/09/08 09:33:29;;;;;;;4.00;3.60;;;32.50;56.00;;;;;;5001639;28;20170;-91
2023/09/08 09:35:59;;;;;;;3.90;3.60;;;32.60;55.80;;;;;;5000264;28;20193;-91
2023/09/08 09:38:30;;;;;;;3.95;3.65;;;32.70;55.80;;;;;;5001078;28;20228;-91
2023/09/08 09:41:13;;;;;;;4.00;3.70;;;32.70;55.60;;;;;;5001485;28;20174;-92
2023/09/08 09:43:48;;;;;;;4.30;3.90;;;32.80;55.50;;;;;;5001780;28;20173;-91
2023/09/08 09:46:15;;;;;;;4.13;3.80;;;32.60;55.60;;;;;;5001973;28;20177;-91
2023/09/08 09:48:41;;;;;;;3.75;3.45;;;32.70;55.50;;;;;;5001811;28;20213;-91
2023/09/08 09:51:25;;;;;;;3.55;3.25;;;32.90;55.40;;;;;;5010369;28;20714;-91
2023/09/08 09:53:54;;;;;;;3.80;3.50;;;32.90;55.20;;;;;;5007892;28;20181;-91
2023/09/08 09:56:22;;;;;;;4.78;3.60;;;32.90;55.20;;;;;;5004724;28;20165;-91
2023/09/08 09:58:48;;;;;;;3.80;3.50;;;32.90;55.10;;;;;;5005185;28;20319;-92
2023/09/08 10:01:18;;;;;;;3.45;3.15;;;32.90;55.10;;;;;;5005905;28;20166;-91
2023/09/08 10:03:44;;;;;;;4.10;3.70;;;32.90;55.20;;;;;;5003971;28;20205;-91
2023/09/08 10:06:14;;;;;;;3.58;3.28;;;32.70;55.30;;;;;;5001947;28;20170;-91
2023/09/08 10:08:43;;;;;;;3.95;3.55;;;32.30;55.60;;;;;;5002676;28;20232;-91
2023/09/08 10:11:14;;;;;;;4.00;3.47;;;32.20;55.80;;;;;;5004063;28;20166;-91
2023/09/08 10:13:48;;;;;;;3.65;3.35;;;31.80;56.20;;;;;;5003785;28;20178;-91
2023/09/08 10:16:19;;;;;;;4.18;3.80;;;31.40;56.80;;;;;;5004072;28;20488;-90
2023/09/08 10:18:47;;;;;;;3.90;3.60;;;31.10;57.50;;;;;;5004943;28;20262;-90
2023/09/08 10:21:14;;;;;;;3.65;3.35;;;30.80;58.00;;;;;;5003885;28;20440;-91
2023/09/08 10:23:53;;;;;;;3.70;3.40;;;30.70;58.40;;;;;;5003380;28;20178;-90
2023/09/08 10:26:29;;;;;;;3.83;3.53;;;30.60;58.60;;;;;;5002978;28;20220;-90
2023/09/08 10:28:59;;;;;;;4.22;3.83;;;30.50;59.20;;;;;;5003280;28;20223;-91
2023/09/08 10:31:27;;;;;;;3.60;3.30;;;30.30;59.30;;;;;;5005612;28;20170;-90
2023/09/08 10:34:03;;;;;;;3.63;3.33;;;30.30;59.60;;;;;;5005197;28;20181;-91
2023/09/08 10:36:31;;;;;;;3.67;3.38;;;30.40;59.70;;;;;;5002818;28;20177;-90
2023/09/08 10:39:30;;;;;;;3.92;3.55;;;30.40;59.90;;;;;;5001150;28;20181;-90
2023/09/08 10:42:36;;;;;;;3.45;3.13;;;30.40;60.00;;;;;;5005606;28;20194;-90
2023/09/08 10:45:16;;;;;;;3.53;3.22;;;30.30;60.30;;;;;;5003286;28;20216;-90
2023/09/08 10:47:45;;;;;;;3.53;3.22;;;30.30;60.40;;;;;;5003717;28;20193;-90
2023/09/08 10:50:27;;;;;;;3.63;3.33;;;30.30;60.80;;;;;;5004293;28;20567;-90
2023/09/08 10:53:12;;;;;;;3.67;3.38;;;30.20;61.00;;;;;;5003851;28;20162;-90
2023/09/08 10:55:47;;;;;;;3.60;3.20;;;30.10;61.40;;;;;;5001497;28;20181;-90
2023/09/08 10:58:36;;;;;;;3.70;3.30;;;30.10;61.90;;;;;;5008790;28;20174;-90
2023/09/08 11:01:04;;;;;;;3.15;2.88;;;29.90;62.30;;;;;;5001226;28;20174;-90
2023/09/08 11:03:41;;;;;;;3.45;3.15;;;29.90;62.80;;;;;;5001453;28;20383;-91
2023/09/08 11:06:11;;;;;;;3.13;2.83;;;29.90;63.10;;;;;;4998741;28;20429;-90
2023/09/08 11:08:42;;;;;;;3.25;2.95;;;29.90;63.40;;;;;;4998277;28;20455;-90
2023/09/08 11:11:13;;;;;;;3.53;3.22;;;29.80;63.50;;;;;;5000137;28;20181;-90
2023/09/08 11:13:45;;;;;;;3.50;3.20;;;29.80;63.80;;;;;;4998823;28;20169;-90
2023/09/08 11:16:11;;;;;;;3.67;3.38;;;29.80;64.00;;;;;;4999197;28;20264;-90
2023/09/08 11:18:37;;;;;;;3.47;3.13;;;29.80;64.30;;;;;;5000533;28;20265;-90
2023/09/08 11:21:14;;;;;;;3.17;2.90;;;29.80;64.60;;;;;;5000854;28;20559;-90
2023/09/08 11:23:55;;;;;;;3.45;3.15;;;29.80;64.90;;;;;;5000071;28;20269;-90
2023/09/08 11:26:24;;;;;;;3.53;3.22;;;29.70;65.20;;;;;;4998071;28;20239;-90
2023/09/08 11:28:54;;;;;;;3.63;3.33;;;29.70;65.60;;;;;;5004554;28;20536;-90
2023/09/08 11:31:22;;;;;;;3.33;3.03;;;29.60;65.90;;;;;;5000942;28;20200;-90
2023/09/08 11:33:49;;;;;;;3.28;2.97;;;29.60;66.30;;;;;;5003644;28;20180;-90
2023/09/08 11:36:15;;;;;;;3.33;3.03;;;29.60;66.60;;;;;;5001034;28;20205;-90
2023/09/08 11:38:46;;;;;;;3.17;2.88;;;29.50;67.00;;;;;;4998729;28;20367;-90
2023/09/08 11:41:23;;;;;;;3.22;2.92;;;29.60;67.10;;;;;;4999885;28;20174;-90
2023/09/08 11:43:49;;;;;;;3.30;3.00;;;29.50;67.30;;;;;;4999222;28;20170;-90
2023/09/08 11:46:18;;;;;;;3.00;2.80;;;29.50;67.50;;;;;;5001724;28;20379;-90
2023/09/08 11:48:44;;;;;;;3.30;2.80;;;29.60;67.80;;;;;;5001622;28;20170;-90
2023/09/08 11:51:13;;;;;;;2.83;2.63;;;29.50;68.10;;;;;;4999150;28;20578;-89
2023/09/08 11:53:45;;;;;;;2.90;2.70;;;29.50;68.30;;;;;;5000946;28;20170;-90
2023/09/08 11:56:11;;;;;;;2.97;2.78;;;29.50;68.50;;;;;;5000063;28;20483;-89
2023/09/08 11:58:37;;;;;;;3.38;3.08;;;29.40;68.70;;;;;;5001693;28;20585;-90
2023/09/08 12:01:09;;;;;;;3.40;3.10;;;29.40;68.90;;;;;;4984051;28;20228;-90
2023/09/08 12:04:00;;;;;;;2.90;2.67;;;29.40;69.20;;;;;;5002508;28;20173;-90
2023/09/08 12:06:27;;;;;;;3.05;2.80;;;29.40;69.50;;;;;;5003084;28;20217;-90
2023/09/08 12:09:05;;;;;;;3.17;2.97;;;29.40;69.70;;;;;;5002342;28;20692;-89
2023/09/08 12:11:35;;;;;;;3.13;2.92;;;29.50;69.90;;;;;;5005341;28;20181;-90
2023/09/08 12:14:08;;;;;;;3.35;3.05;;;29.40;69.90;;;;;;5003790;28;20208;-90
2023/09/08 12:16:35;;;;;;;2.80;2.60;;;29.40;70.10;;;;;;5005836;28;20166;-89
2023/09/08 12:19:01;;;;;;;2.88;2.67;;;29.40;70.30;;;;;;5007851;28;20180;-90
2023/09/08 12:21:31;;;;;;;3.00;2.70;;;29.40;70.50;;;;;;5007061;28;20292;-89
2023/09/08 12:24:00;;;;;;;3.35;3.05;;;29.40;70.70;;;;;;5012967;28;20304;-90
2023/09/08 12:26:29;;;;;;;3.05;2.85;;;29.40;70.80;;;;;;5009254;28;20231;-90
2023/09/08 12:28:55;;;;;;;3.10;2.80;;;29.40;71.10;;;;;;5010320;28;20349;-90
2023/09/08 12:31:24;;;;;;;3.40;3.10;;;29.40;71.40;;;;;;5008981;28;20336;-90
2023/09/08 12:33:53;;;;;;;3.10;2.83;;;29.30;71.70;;;;;;5007525;28;20235;-89
2023/09/08 12:36:19;;;;;;;3.00;2.80;;;29.30;71.90;;;;;;5007311;28;20314;-88
2023/09/08 12:38:52;;;;;;;3.00;2.80;;;29.30;72.10;;;;;;5006130;28;20201;-89
2023/09/08 12:41:24;;;;;;;3.25;2.95;;;29.40;72.30;;;;;;5007805;28;20421;-89
2023/09/08 12:43:55;;;;;;;2.63;2.42;;;29.30;72.50;;;;;;5007849;28;20177;-88
2023/09/08 12:46:24;;;;;;;2.97;2.78;;;29.30;72.70;;;;;;5006117;28;20382;-89
2023/09/08 12:48:49;;;;;;;3.08;2.80;;;29.30;72.80;;;;;;5001426;28;20367;-89
2023/09/08 12:51:17;;;;;;;2.80;2.60;;;29.30;73.00;;;;;;5004380;28;20599;-89
2023/09/08 12:53:46;;;;;;;2.55;2.35;;;29.30;73.10;;;;;;5004539;28;20176;-89
2023/09/08 12:56:15;;;;;;;3.38;2.83;;;29.30;73.30;;;;;;5003643;28;20174;-89
2023/09/08 12:58:43;;;;;;;3.20;2.90;;;29.30;73.40;;;;;;5005649;28;20303;-89
2023/09/08 13:01:11;;;;;;;2.78;2.58;;;29.30;73.60;;;;;;5005502;28;20359;-89
2023/09/08 13:03:44;;;;;;;2.80;2.60;;;29.40;73.80;;;;;;5004750;28;20682;-90
2023/09/08 13:06:18;;;;;;;3.25;2.95;;;29.30;73.90;;;;;;5006827;28;20182;-89